Time;durP1;ratioP1;P1;durP2;ratioP2;P2;SDS_P1;SDS_P2;PMS_P1;PMS_P2;Temp;Humidity;BMP_temperature;BMP_pressure;BME280_temperature;BME280_humidity;BME280_pressure;Samples;Min_cycle;Max_cycle;Signal;HPM_P1;HPM_P2
2022/05/02 00:00:00;;;;;;;3.85;3.70;;;;;;;8.02;80.40;101582.72;6109491;23;20036;-75
2022/05/02 00:02:27;;;;;;;4.38;4.18;;;;;;;7.66;80.71;101517.50;6083356;23;20109;-74
2022/05/02 00:04:53;;;;;;;5.25;5.05;;;;;;;7.69;80.41;101528.72;6109136;23;20025;-75
2022/05/02 00:07:20;;;;;;;4.50;4.30;;;;;;;7.93;81.41;101569.00;6097122;23;20025;-73
2022/05/02 00:09:46;;;;;;;4.13;3.97;;;;;;;7.73;80.78;101539.97;6076370;23;20012;-74
2022/05/02 00:12:13;;;;;;;4.22;4.00;;;;;;;7.44;82.44;101509.38;6140400;23;20021;-75
2022/05/02 00:14:39;;;;;;;4.00;3.80;;;;;;;7.45;81.67;101513.72;6089371;23;20300;-75
2022/05/02 00:17:05;;;;;;;4.53;4.32;;;;;;;7.76;81.75;101566.88;6069206;23;20675;-74
2022/05/02 00:19:32;;;;;;;4.22;4.03;;;;;;;7.71;82.40;101578.34;6140301;23;20367;-73
2022/05/02 00:21:58;;;;;;;5.55;5.25;;;;;;;7.07;81.51;101469.41;6097586;23;20017;-75
2022/05/02 00:24:25;;;;;;;4.28;4.07;;;;;;;7.17;82.59;101485.69;6139301;23;20005;-75
2022/05/02 00:26:51;;;;;;;5.30;5.10;;;;;;;6.83;81.97;101442.16;6088850;23;20034;-73
2022/05/02 00:29:17;;;;;;;3.70;3.60;;;;;;;7.43;82.91;101547.69;6065962;23;20006;-75
2022/05/02 00:31:45;;;;;;;4.20;4.00;;;;;;;7.49;82.69;101565.81;6105567;23;20104;-73
2022/05/02 00:34:12;;;;;;;3.67;3.58;;;;;;;7.06;83.38;101496.41;6068444;23;20085;-74
2022/05/02 00:36:39;;;;;;;3.97;3.85;;;;;;;6.54;83.94;101414.19;6090728;23;20038;-74
2022/05/02 00:39:06;;;;;;;4.05;3.85;;;;;;;7.30;83.72;101549.75;6077007;23;20020;-74
2022/05/02 00:41:33;;;;;;;4.38;4.18;;;;;;;7.24;84.46;101546.47;6079285;23;20566;-75
2022/05/02 00:43:59;;;;;;;5.82;5.53;;;;;;;7.03;84.37;101529.56;6067869;23;20605;-74
2022/05/02 00:46:26;;;;;;;3.80;3.60;;;;;;;7.14;84.71;101551.88;6104973;23;20040;-75
2022/05/02 00:48:53;;;;;;;5.45;5.25;;;;;;;7.03;85.03;101538.22;6073676;23;20047;-75
2022/05/02 00:51:21;;;;;;;4.03;3.83;;;;;;;7.05;85.25;101539.06;6106066;23;20129;-74
2022/05/02 00:53:50;;;;;;;3.95;3.80;;;;;;;6.99;85.53;101532.22;6050072;23;20435;-73
2022/05/02 00:56:18;;;;;;;3.55;3.45;;;;;;;7.06;86.16;101537.31;6114793;23;20087;-74
2022/05/02 00:58:44;;;;;;;3.85;3.72;;;;;;;6.30;85.42;101428.66;6077700;23;20021;-72
2022/05/02 01:01:11;;;;;;;3.92;3.70;;;;;;;7.01;86.20;101533.94;6076570;23;20041;-73
2022/05/02 01:03:37;;;;;;;3.80;3.60;;;;;;;6.03;86.46;101385.81;6133478;23;20445;-73
2022/05/02 01:08:52;;;;;;;4.72;4.53;;;;;;;6.92;86.93;101545.47;6135381;23;20016;-76
2022/05/02 01:11:19;;;;;;;4.15;3.95;;;;;;;6.90;86.94;101542.03;6085180;23;20506;-75
2022/05/02 01:13:48;;;;;;;4.75;4.50;;;;;;;6.92;86.43;101530.66;6080676;23;20001;-74
2022/05/02 01:16:28;;;;;;;3.60;3.50;;;;;;;6.89;87.80;101527.25;6137468;23;20021;-73
2022/05/02 01:18:57;;;;;;;5.68;5.45;;;;;;;6.90;88.69;101534.22;6101565;23;20041;-74
2022/05/02 01:21:29;;;;;;;3.40;3.30;;;;;;;6.40;87.87;101456.25;6050312;23;20101;-75
2022/05/02 01:24:01;;;;;;;5.32;5.13;;;;;;;6.89;88.53;101529.88;6095522;23;20018;-75
2022/05/02 01:26:28;;;;;;;4.18;3.97;;;;;;;6.36;88.18;101445.00;6073282;23;20104;-72
2022/05/02 01:28:59;;;;;;;5.00;4.80;;;;;;;6.43;87.66;101460.50;6099365;23;20085;-74
2022/05/02 01:31:26;;;;;;;3.58;3.47;;;;;;;6.88;88.77;101525.56;6072703;23;20025;-73
2022/05/02 01:33:54;;;;;;;5.05;4.85;;;;;;;6.86;88.54;101525.59;6144999;23;20557;-74
2022/05/02 01:36:22;;;;;;;3.90;3.70;;;;;;;6.57;88.08;101472.38;6087100;23;20016;-75
2022/05/02 01:38:49;;;;;;;4.10;3.90;;;;;;;6.91;89.26;101521.09;6129175;23;20585;-72
2022/05/02 01:41:16;;;;;;;3.40;3.30;;;;;;;6.41;90.38;101441.44;6090828;23;20014;-73
2022/05/02 01:43:43;;;;;;;3.75;3.65;;;;;;;6.85;91.39;101526.47;6068507;23;20016;-74
2022/05/02 01:46:12;;;;;;;4.00;3.80;;;;;;;6.84;92.49;101513.50;6136506;23;20025;-74
2022/05/02 01:48:39;;;;;;;3.80;3.70;;;;;;;6.76;93.46;101496.25;6099952;23;20076;-74
2022/05/02 01:51:06;;;;;;;4.93;4.72;;;;;;;6.41;92.01;101428.41;6149387;17;20802;-74
2022/05/02 01:53:32;;;;;;;3.90;3.70;;;;;;;6.91;91.76;101508.06;6087355;23;20062;-74
2022/05/02 01:56:00;;;;;;;5.00;4.80;;;;;;;6.97;91.04;101504.44;6129950;23;20608;-76
2022/05/02 01:58:26;;;;;;;4.35;4.15;;;;;;;6.03;90.67;101349.34;6114210;23;21809;-73
2022/05/02 02:00:53;;;;;;;5.25;4.95;;;;;;;7.06;91.22;101512.06;6131570;23;20013;-73
2022/05/02 02:03:19;;;;;;;3.65;3.55;;;;;;;6.65;91.41;101432.19;6106968;23;20041;-73
2022/05/02 02:05:49;;;;;;;4.03;3.88;;;;;;;7.16;91.21;101508.34;6106218;23;20482;-73
2022/05/02 02:08:17;;;;;;;3.90;3.70;;;;;;;7.18;91.72;101497.88;6113257;23;20041;-73
2022/05/02 02:10:44;;;;;;;5.18;4.78;;;;;;;7.19;91.90;101502.16;6107896;23;20481;-75
2022/05/02 02:13:12;;;;;;;4.20;4.00;;;;;;;7.20;91.87;101498.69;6099622;23;20597;-73
2022/05/02 02:15:39;;;;;;;4.85;4.43;;;;;;;6.84;90.47;101430.84;6108790;23;20025;-74
2022/05/02 02:18:05;;;;;;;4.20;4.00;;;;;;;6.85;90.70;101423.88;6105542;23;20014;-74
2022/05/02 02:20:33;;;;;;;3.55;3.45;;;;;;;7.28;91.31;101501.94;6111529;23;20021;-75
2022/05/02 02:23:00;;;;;;;5.05;4.85;;;;;;;6.95;91.49;101444.47;6104478;23;20018;-73
2022/05/02 02:25:26;;;;;;;3.63;3.53;;;;;;;7.32;90.89;101498.38;6112524;23;20614;-74
2022/05/02 02:27:54;;;;;;;5.40;5.20;;;;;;;7.12;91.05;101466.69;6109536;23;20041;-73
2022/05/02 02:30:20;;;;;;;4.50;4.20;;;;;;;7.11;90.24;101463.22;6110983;23;20020;-73
2022/05/02 02:32:46;;;;;;;3.80;3.67;;;;;;;6.97;90.03;101423.56;6117560;23;20021;-75
2022/05/02 02:35:13;;;;;;;4.05;3.85;;;;;;;7.08;90.76;101457.22;6112558;23;20025;-74
2022/05/02 02:37:40;;;;;;;4.30;4.10;;;;;;;7.33;90.65;101467.88;6117403;23;20026;-74
2022/05/02 02:40:09;;;;;;;4.00;3.80;;;;;;;7.03;90.50;101426.00;6122700;23;20041;-73
2022/05/02 02:42:36;;;;;;;3.60;3.50;;;;;;;6.95;89.88;101401.88;6089623;23;20455;-75
2022/05/02 02:45:03;;;;;;;5.55;5.25;;;;;;;7.47;90.83;101491.03;6110447;23;20477;-75
2022/05/02 02:47:29;;;;;;;3.58;3.47;;;;;;;7.05;90.33;101411.16;6109733;23;20080;-75
2022/05/02 02:49:56;;;;;;;5.32;5.13;;;;;;;7.50;91.18;101486.59;6105874;23;20544;-74
2022/05/02 02:52:22;;;;;;;4.03;3.83;;;;;;;7.53;90.12;101483.88;6118703;23;20029;-74
2022/05/02 02:54:49;;;;;;;3.70;3.50;;;;;;;6.90;90.12;101365.47;6113270;23;20454;-75
2022/05/02 02:57:16;;;;;;;4.07;3.88;;;;;;;7.57;89.95;101464.59;6112699;23;20021;-75
2022/05/02 02:59:43;;;;;;;3.80;3.70;;;;;;;7.65;89.43;101472.22;6122799;23;20346;-75
2022/05/02 03:02:09;;;;;;;3.70;3.60;;;;;;;7.67;90.26;101469.59;6115833;23;20108;-73
2022/05/02 03:07:24;;;;;;;3.85;3.72;;;;;;;7.67;90.26;101473.03;6112850;23;20037;-74
2022/05/02 03:09:50;;;;;;;5.25;4.95;;;;;;;7.40;90.02;101427.66;6108403;23;20017;-76
2022/05/02 03:12:18;;;;;;;4.80;4.50;;;;;;;7.41;92.21;101475.50;6116303;23;20017;-76
2022/05/02 03:14:45;;;;;;;4.10;3.90;;;;;;;7.18;94.53;101463.94;6114484;23;20095;-73
2022/05/02 03:17:11;;;;;;;4.05;3.85;;;;;;;7.30;93.20;101463.59;6079604;23;20664;-74
2022/05/02 03:19:38;;;;;;;4.30;4.00;;;;;;;7.08;93.83;101441.56;6092713;23;20030;-73
2022/05/02 03:22:05;;;;;;;3.80;3.65;;;;;;;7.23;94.72;101467.25;6110228;23;20017;-73
2022/05/02 03:24:31;;;;;;;4.15;3.95;;;;;;;6.16;94.19;101283.88;6120777;23;20016;-75
2022/05/02 03:26:58;;;;;;;5.88;5.57;;;;;;;7.26;95.16;101466.34;6106672;23;20029;-74
2022/05/02 03:29:24;;;;;;;3.60;3.50;;;;;;;7.27;94.45;101463.66;6118021;23;20027;-75
2022/05/02 03:31:51;;;;;;;4.22;4.03;;;;;;;7.08;94.80;101445.03;6096037;23;20037;-75
2022/05/02 03:34:18;;;;;;;5.45;5.25;;;;;;;7.24;95.57;101460.31;6112519;23;20013;-74
2022/05/02 03:36:44;;;;;;;4.18;3.97;;;;;;;7.27;94.35;101452.38;6125357;23;20016;-74
2022/05/02 03:39:11;;;;;;;3.63;3.50;;;;;;;7.14;94.26;101431.81;6079509;23;20089;-74
2022/05/02 03:41:37;;;;;;;3.65;3.55;;;;;;;7.11;94.22;101436.25;6112659;23;20013;-76
2022/05/02 03:44:04;;;;;;;4.60;4.40;;;;;;;7.30;95.35;101460.16;6091112;23;20088;-74
2022/05/02 03:46:30;;;;;;;3.53;3.42;;;;;;;7.32;95.33;101453.13;6117546;23;20454;-74
2022/05/02 03:48:59;;;;;;;5.55;5.25;;;;;;;7.27;93.96;101453.22;6110423;23;20088;-75
2022/05/02 03:51:27;;;;;;;6.38;3.92;;;;;;;6.91;94.01;101389.78;6121414;23;20021;-75
2022/05/02 03:53:53;;;;;;;4.68;4.47;;;;;;;6.68;94.03;101344.28;6119729;23;20797;-74
2022/05/02 03:56:19;;;;;;;3.60;3.50;;;;;;;7.19;93.76;101424.72;6110234;23;20154;-74
2022/05/02 03:58:46;;;;;;;4.35;4.15;;;;;;;6.80;93.60;101358.78;6115329;23;20048;-73
2022/05/02 04:01:12;;;;;;;3.60;3.40;;;;;;;7.43;92.88;101458.06;6104538;23;20022;-75
2022/05/02 04:03:39;;;;;;;3.40;3.30;;;;;;;7.45;93.24;101461.47;6123508;23;20828;-75
2022/05/02 04:06:05;;;;;;;4.60;4.40;;;;;;;7.02;92.44;101390.38;6117433;23;20529;-75
2022/05/02 04:08:32;;;;;;;4.40;4.20;;;;;;;7.21;92.26;101426.44;6108361;23;20022;-74
2022/05/02 04:10:59;;;;;;;5.57;5.30;;;;;;;7.42;93.89;101465.03;6109627;23;20686;-74
2022/05/02 04:13:25;;;;;;;4.25;4.05;;;;;;;7.40;93.38;101456.38;6111178;23;20057;-74
2022/05/02 04:15:52;;;;;;;4.82;4.63;;;;;;;7.42;94.56;101462.44;6104984;23;20159;-76
2022/05/02 04:18:19;;;;;;;4.60;4.40;;;;;;;6.86;93.43;101356.00;6116707;23;20026;-74
2022/05/02 04:20:45;;;;;;;3.42;3.33;;;;;;;7.35;94.43;101442.59;6110053;23;20090;-75
2022/05/02 04:23:12;;;;;;;3.90;3.70;;;;;;;7.42;94.38;101457.19;6108779;23;20018;-77
2022/05/02 04:25:39;;;;;;;3.60;3.50;;;;;;;7.26;93.71;101424.56;6118388;23;20049;-75
2022/05/02 04:28:07;;;;;;;3.70;3.60;;;;;;;7.45;93.63;101462.31;6106649;23;20014;-73
2022/05/02 04:30:37;;;;;;;4.43;4.13;;;;;;;7.26;94.20;101438.47;6112199;23;20087;-74
2022/05/02 04:33:04;;;;;;;5.75;5.45;;;;;;;6.84;93.96;101365.63;6110952;23;20013;-74
2022/05/02 04:35:31;;;;;;;3.95;3.75;;;;;;;6.89;93.75;101362.88;6120081;23;20095;-73
2022/05/02 04:37:58;;;;;;;4.18;3.97;;;;;;;7.43;94.51;101492.00;6117257;23;20614;-72
2022/05/02 04:40:25;;;;;;;3.70;3.60;;;;;;;7.17;95.20;101420.44;6126637;23;20022;-74
2022/05/02 04:42:52;;;;;;;3.75;3.58;;;;;;;7.33;94.58;101457.44;6119028;23;20101;-74
2022/05/02 04:45:18;;;;;;;3.50;3.40;;;;;;;7.39;95.71;101452.03;6116493;23;20071;-74
2022/05/02 04:47:45;;;;;;;3.65;3.55;;;;;;;7.19;94.73;101414.25;6117206;23;20553;-72
2022/05/02 04:50:11;;;;;;;3.60;3.50;;;;;;;7.44;95.10;101447.56;6116104;23;20013;-73
2022/05/02 04:52:38;;;;;;;3.90;3.70;;;;;;;6.92;95.25;101374.09;6121718;23;20455;-75
2022/05/02 04:55:05;;;;;;;4.25;4.05;;;;;;;7.48;94.88;101451.81;6113807;23;20009;-72
2022/05/02 04:57:32;;;;;;;4.10;3.90;;;;;;;7.02;94.86;101382.56;6111253;23;20872;-72
2022/05/02 04:59:58;;;;;;;5.05;4.85;;;;;;;7.57;95.67;101467.22;6110132;23;20033;-72
2022/05/02 05:02:25;;;;;;;3.90;3.70;;;;;;;7.70;93.91;101464.28;6123498;23;20009;-73
2022/05/02 05:04:52;;;;;;;4.00;3.80;;;;;;;7.38;93.44;101409.41;6117138;23;20036;-73
2022/05/02 05:07:19;;;;;;;3.95;3.75;;;;;;;7.89;92.71;101470.69;6127010;23;20087;-73
2022/05/02 05:09:45;;;;;;;3.97;3.78;;;;;;;8.03;92.46;101466.84;6115439;23;20438;-72
2022/05/02 05:12:28;;;;;;;3.90;3.70;;;;;;;8.09;91.31;101450.97;6114067;23;20021;-73
2022/05/02 05:18:16;;;;;;;4.88;4.57;;;;;;;8.20;90.40;101461.97;6116421;23;20079;-73
2022/05/02 05:21:02;;;;;;;4.50;4.30;;;;;;;8.26;91.22;101468.75;6104823;23;20017;-73
2022/05/02 05:24:13;;;;;;;4.15;3.95;;;;;;;8.39;90.45;101462.25;6117729;23;20037;-74
2022/05/02 05:27:00;;;;;;;4.20;4.00;;;;;;;7.84;88.61;101383.75;6105721;23;20021;-71
2022/05/02 05:29:48;;;;;;;4.97;4.68;;;;;;;8.52;89.15;101457.50;6107950;23;20029;-75
2022/05/02 05:32:40;;;;;;;4.47;4.28;;;;;;;8.69;87.96;101465.69;6104857;23;20057;-74
2022/05/02 05:35:08;;;;;;;4.80;4.60;;;;;;;8.27;86.71;101426.88;6101191;23;20013;-74
2022/05/02 05:37:56;;;;;;;4.00;3.80;;;;;;;8.59;87.09;101469.50;6109127;23;20036;-75
2022/05/02 05:40:37;;;;;;;4.18;3.97;;;;;;;8.46;86.77;101450.75;6111108;23;20009;-71
2022/05/02 05:43:47;;;;;;;4.15;3.95;;;;;;;8.54;87.78;101432.19;6100515;23;20021;-74
2022/05/02 05:46:52;;;;;;;3.95;3.78;;;;;;;8.50;85.81;101397.41;6106425;23;20148;-73
2022/05/02 05:49:38;;;;;;;3.90;3.70;;;;;;;9.14;84.94;101470.34;6106060;23;20017;-71
2022/05/02 05:52:23;;;;;;;4.95;4.75;;;;;;;9.12;84.09;101425.03;6108082;23;20018;-72
2022/05/02 05:54:58;;;;;;;4.50;4.30;;;;;;;9.83;83.61;101471.44;6105723;23;20096;-72
2022/05/02 05:58:25;;;;;;;4.13;3.92;;;;;;;10.12;80.49;101468.59;6106279;23;20023;-73
2022/05/02 06:01:05;;;;;;;5.22;5.03;;;;;;;9.83;77.91;101440.81;6018778;23;20019;-75
2022/05/02 06:03:37;;;;;;;4.53;4.32;;;;;;;10.32;77.37;101472.22;6028748;23;20034;-72
2022/05/02 06:06:03;;;;;;;4.50;4.30;;;;;;;9.12;77.58;101262.66;6088052;23;20020;-73
2022/05/02 06:08:31;;;;;;;4.80;4.60;;;;;;;10.38;78.02;101437.88;6104758;23;20012;-73
2022/05/02 06:10:58;;;;;;;6.53;6.13;;;;;;;10.88;77.23;101442.00;6111753;23;20508;-72
2022/05/02 06:13:30;;;;;;;4.90;4.70;;;;;;;11.10;73.20;101471.69;6109716;23;20140;-74
2022/05/02 06:19:04;;;;;;;6.25;5.72;;;;;;;10.40;73.03;101394.06;6113359;23;20080;-73
2022/05/02 06:21:32;;;;;;;4.60;4.40;;;;;;;11.11;72.75;101465.53;6111757;23;20024;-75
2022/05/02 06:24:04;;;;;;;5.88;5.60;;;;;;;11.02;72.01;101442.28;6080960;23;20017;-74
2022/05/02 06:26:30;;;;;;;5.22;4.90;;;;;;;10.83;71.57;101465.00;6115598;23;20197;-74
2022/05/02 06:28:56;;;;;;;6.38;5.97;;;;;;;10.52;72.77;101387.47;6099759;23;20032;-74
2022/05/02 06:31:26;;;;;;;4.18;3.97;;;;;;;10.89;72.11;101444.56;6126608;23;20676;-73
2022/05/02 06:33:53;;;;;;;5.50;5.28;;;;;;;10.71;71.56;101413.84;6110307;23;20025;-73
2022/05/02 06:36:51;;;;;;;4.72;4.53;;;;;;;11.47;71.29;101483.28;6118151;23;20025;-74
2022/05/02 06:39:20;;;;;;;4.30;4.10;;;;;;;11.58;71.44;101485.44;6106886;23;20030;-74
2022/05/02 06:42:02;;;;;;;5.47;5.18;;;;;;;11.57;69.69;101483.75;6104831;23;20453;-74
2022/05/02 06:44:35;;;;;;;4.70;4.50;;;;;;;11.75;69.86;101477.66;6115705;23;20022;-72
2022/05/02 06:47:24;;;;;;;4.47;4.28;;;;;;;11.13;69.09;101420.81;6111878;23;20066;-75
2022/05/02 06:49:57;;;;;;;6.30;6.00;;;;;;;11.54;71.00;101482.06;6108423;23;20025;-74
2022/05/02 06:52:24;;;;;;;;;;;;;;;11.66;69.90;101474.59;6130124;23;20028;-73
2022/05/02 06:55:00;;;;;;;5.78;5.38;;;;;;;12.04;70.42;101474.66;6109764;23;19951;-76
2022/05/02 06:57:54;;;;;;;4.30;4.10;;;;;;;12.63;67.57;101476.28;6115737;23;20043;-74
2022/05/02 07:00:21;;;;;;;4.97;4.68;;;;;;;12.18;65.37;101417.84;6120027;23;20024;-75
2022/05/02 07:03:03;;;;;;;5.28;5.00;;;;;;;12.06;66.51;101472.81;6114659;23;20057;-75
2022/05/02 07:05:55;;;;;;;4.70;4.50;;;;;;;12.14;67.57;101481.22;6107989;23;20017;-72
2022/05/02 07:08:29;;;;;;;4.57;4.38;;;;;;;12.28;67.37;101470.03;6110590;23;20033;-74
2022/05/02 07:11:03;;;;;;;6.38;5.95;;;;;;;12.36;66.12;101474.00;6110805;23;20017;-73
2022/05/02 07:14:00;;;;;;;5.30;5.00;;;;;;;12.73;66.57;101477.53;6114257;23;20047;-72
2022/05/02 07:16:30;;;;;;;5.47;5.07;;;;;;;12.57;64.87;101440.56;6115976;23;20037;-72
2022/05/02 07:19:31;;;;;;;7.25;6.85;;;;;;;13.02;64.03;101479.66;6107185;23;20038;-74
2022/05/02 07:22:04;;;;;;;4.95;4.75;;;;;;;12.86;63.92;101477.78;6111919;23;20032;-75
2022/05/02 07:24:34;;;;;;;5.53;5.13;;;;;;;12.79;64.39;101476.38;6108085;23;20034;-73
2022/05/02 07:27:07;;;;;;;7.45;6.95;;;;;;;13.09;63.43;101479.28;6105901;23;20151;-74
2022/05/02 07:29:37;;;;;;;5.25;4.95;;;;;;;13.09;64.19;101474.00;6103388;23;20033;-73
2022/05/02 07:32:06;;;;;;;5.55;5.20;;;;;;;12.95;64.12;101427.28;6108038;23;20022;-76
2022/05/02 07:34:36;;;;;;;6.18;5.78;;;;;;;13.04;62.50;101414.56;6117413;23;20092;-74
2022/05/02 07:37:02;;;;;;;6.60;6.30;;;;;;;13.11;61.53;101463.38;6091831;23;20021;-75
2022/05/02 07:39:31;;;;;;;4.93;4.72;;;;;;;13.06;64.54;101479.41;6115984;23;20470;-74
2022/05/02 07:42:00;;;;;;;6.20;5.90;;;;;;;13.29;62.86;101480.94;6113203;23;20024;-75
2022/05/02 07:44:33;;;;;;;6.00;5.65;;;;;;;13.40;63.54;101483.00;6120010;23;20009;-74
2022/05/02 07:47:04;;;;;;;5.97;5.65;;;;;;;12.21;63.76;101342.31;6082218;23;20073;-73
2022/05/02 07:49:34;;;;;;;5.28;5.07;;;;;;;13.53;63.15;101488.50;6114690;23;20033;-72
2022/05/02 07:52:02;;;;;;;6.80;6.47;;;;;;;13.55;62.45;101479.59;6106911;23;20082;-74
2022/05/02 07:54:35;;;;;;;5.32;5.03;;;;;;;13.42;62.35;101482.94;6141595;23;20077;-72
2022/05/02 07:57:04;;;;;;;6.10;5.80;;;;;;;13.52;61.69;101482.38;6143788;23;20446;-74
2022/05/02 07:59:34;;;;;;;5.30;5.00;;;;;;;13.90;61.37;101486.56;6130209;23;20603;-72
2022/05/02 08:02:00;;;;;;;7.20;6.80;;;;;;;13.92;61.03;101492.63;6156272;23;20538;-74
2022/05/02 08:04:27;;;;;;;5.25;4.95;;;;;;;14.08;59.50;101484.72;6139540;23;20013;-73
2022/05/02 08:07:09;;;;;;;7.03;6.63;;;;;;;14.05;60.06;101485.75;6136032;23;20035;-74
2022/05/02 08:10:07;;;;;;;5.18;4.88;;;;;;;13.90;61.74;101482.13;6139556;23;20025;-72
2022/05/02 08:12:51;;;;;;;5.97;5.68;;;;;;;13.73;61.94;101476.91;6127095;23;20096;-73
2022/05/02 08:15:23;;;;;;;5.22;4.93;;;;;;;13.78;61.17;101459.06;6135860;23;20001;-73
2022/05/02 08:17:55;;;;;;;6.32;6.00;;;;;;;14.02;61.97;101478.00;6137544;23;20088;-73
2022/05/02 08:20:34;;;;;;;5.45;5.15;;;;;;;14.07;59.97;101475.97;6134872;23;20021;-75
2022/05/02 08:29:21;;;;;;;4.93;4.72;;;;;;;13.65;61.09;101382.38;6135989;23;20025;-74
2022/05/02 08:31:53;;;;;;;5.88;5.60;;;;;;;14.11;58.85;101477.50;6134432;23;20028;-75
2022/05/02 08:34:38;;;;;;;5.32;4.88;;;;;;;14.20;58.76;101470.00;6137319;23;20017;-74
2022/05/02 08:37:13;;;;;;;6.65;6.35;;;;;;;14.52;58.75;101468.22;6141821;23;20023;-75
2022/05/02 08:40:05;;;;;;;5.90;5.60;;;;;;;14.35;60.12;101472.66;6129776;23;20017;-73
2022/05/02 08:43:06;;;;;;;5.35;5.05;;;;;;;14.64;59.83;101464.91;6131103;23;20031;-73
2022/05/02 08:46:27;;;;;;;5.22;4.93;;;;;;;14.75;57.63;101464.28;6131060;23;20505;-74
2022/05/02 08:52:20;;;;;;;6.45;6.15;;;;;;;15.14;58.57;101450.53;6131439;23;20021;-75
2022/05/02 08:54:49;;;;;;;5.53;5.13;;;;;;;15.34;56.36;101457.28;6133691;23;20297;-74
2022/05/02 08:57:22;;;;;;;5.20;4.97;;;;;;;15.43;57.80;101452.38;6141121;23;20024;-75
2022/05/02 09:00:06;;;;;;;7.55;7.18;;;;;;;15.32;55.79;101458.31;6131179;23;20239;-74
2022/05/02 09:03:10;;;;;;;5.65;5.35;;;;;;;15.56;55.96;101446.25;6138082;23;20012;-73
2022/05/02 09:06:07;;;;;;;6.07;5.47;;;;;;;15.51;58.21;101445.66;6103540;23;20271;-75
2022/05/02 09:09:08;;;;;;;5.30;5.07;;;;;;;15.48;53.95;101448.50;6128390;23;20009;-72
2022/05/02 09:11:44;;;;;;;5.15;4.95;;;;;;;15.71;54.61;101444.44;6132193;23;20032;-73
2022/05/02 09:14:35;;;;;;;5.40;5.10;;;;;;;15.85;54.85;101443.63;6128225;23;20019;-74
2022/05/02 09:17:39;;;;;;;6.68;6.32;;;;;;;16.05;53.58;101447.66;6126135;23;20323;-73
2022/05/02 09:20:24;;;;;;;5.75;5.45;;;;;;;15.86;52.16;101442.69;6135124;23;20503;-71
2022/05/02 09:23:28;;;;;;;6.78;6.30;;;;;;;15.73;51.46;101412.63;6127315;23;20025;-72
2022/05/02 09:26:26;;;;;;;5.25;4.95;;;;;;;16.17;51.09;101437.25;6146535;23;20526;-75
2022/05/02 09:29:39;;;;;;;6.55;6.25;;;;;;;14.75;49.83;101248.50;6135494;23;20029;-72
2022/05/02 09:32:32;;;;;;;6.07;5.38;;;;;;;16.20;50.41;101437.06;6134484;23;20465;-72
2022/05/02 09:35:04;;;;;;;6.63;6.30;;;;;;;16.28;48.64;101440.91;6132003;23;20027;-74
2022/05/02 09:37:38;;;;;;;6.30;5.80;;;;;;;15.89;49.80;101405.41;6120711;23;20052;-72
2022/05/02 09:40:14;;;;;;;6.10;5.80;;;;;;;15.93;50.70;101436.03;6134890;23;20072;-72
2022/05/02 09:42:59;;;;;;;5.45;5.20;;;;;;;16.34;50.55;101427.25;6140756;23;20305;-72
2022/05/02 09:52:15;;;;;;;5.32;5.13;;;;;;;16.22;49.83;101428.06;6139300;23;20139;-72
2022/05/02 09:57:59;;;;;;;6.43;6.07;;;;;;;16.67;49.83;101414.56;6145213;23;20109;-72
2022/05/02 10:03:35;;;;;;;5.18;4.97;;;;;;;17.04;48.25;101420.06;6146540;23;20529;-72
2022/05/02 10:06:10;;;;;;;5.90;5.60;;;;;;;16.04;48.21;101312.75;6143707;23;20054;-72
2022/05/02 10:08:55;;;;;;;5.03;4.75;;;;;;;16.74;46.89;101422.00;6127617;23;20199;-73
2022/05/02 10:11:51;;;;;;;4.80;4.57;;;;;;;17.12;48.95;101402.69;6133789;23;20017;-74
2022/05/02 10:14:43;;;;;;;5.38;5.07;;;;;;;16.80;47.97;101401.31;6103755;23;20036;-72
2022/05/02 10:17:17;;;;;;;5.72;5.43;;;;;;;17.13;49.28;101403.53;6142421;23;20437;-73
2022/05/02 10:20:04;;;;;;;5.55;5.22;;;;;;;17.31;47.94;101364.25;6134412;23;20027;-72
2022/05/02 10:22:40;;;;;;;5.88;5.47;;;;;;;17.70;46.79;101402.19;6139393;23;20043;-73
2022/05/02 10:25:38;;;;;;;6.35;5.95;;;;;;;17.49;44.79;101396.63;6125336;23;20042;-72
2022/05/02 10:28:28;;;;;;;6.70;6.07;;;;;;;17.32;45.31;101397.81;6089832;23;20225;-73
2022/05/02 10:31:01;;;;;;;6.25;5.95;;;;;;;17.55;45.90;101396.19;6132609;23;20037;-72
2022/05/02 10:33:34;;;;;;;5.32;5.10;;;;;;;17.77;45.23;101408.78;6137300;23;20084;-73
2022/05/02 10:36:04;;;;;;;5.50;5.20;;;;;;;17.22;45.88;101375.50;6148379;23;20040;-73
2022/05/02 10:38:34;;;;;;;6.50;6.10;;;;;;;17.17;45.45;101337.84;6135440;23;20339;-72
2022/05/02 10:41:12;;;;;;;4.95;4.75;;;;;;;17.43;45.83;101336.03;6130466;23;20063;-73
2022/05/02 10:43:47;;;;;;;5.30;5.00;;;;;;;17.96;46.01;101394.22;6139819;23;20259;-73
2022/05/02 10:46:16;;;;;;;5.82;5.53;;;;;;;17.54;45.10;101379.41;6145933;23;20615;-71
2022/05/02 10:49:31;;;;;;;6.15;5.75;;;;;;;17.45;46.62;101326.97;6142734;23;20076;-73
2022/05/02 10:52:15;;;;;;;7.57;7.18;;;;;;;17.97;45.03;101394.09;6089306;23;20291;-74
2022/05/02 10:55:02;;;;;;;5.93;5.63;;;;;;;17.79;44.10;101384.78;6133057;23;20025;-73
2022/05/02 10:57:38;;;;;;;5.85;5.55;;;;;;;18.02;40.88;101391.13;6141638;23;20499;-71
2022/05/02 11:00:09;;;;;;;6.07;5.78;;;;;;;18.43;42.37;101388.06;6146561;23;20688;-72
2022/05/02 11:02:51;;;;;;;6.07;5.50;;;;;;;18.62;39.56;101395.53;6153323;23;20073;-73
2022/05/02 11:05:41;;;;;;;5.40;5.10;;;;;;;18.31;40.18;101360.59;6146962;23;20088;-73
2022/05/02 11:08:14;;;;;;;5.55;5.25;;;;;;;17.92;41.22;101306.81;6123946;23;20028;-73
2022/05/02 11:10:56;;;;;;;5.97;5.68;;;;;;;17.58;40.85;101308.41;6137984;23;20077;-74
2022/05/02 11:13:51;;;;;;;6.20;5.80;;;;;;;18.11;39.96;101342.63;6137082;23;20145;-73
2022/05/02 11:16:26;;;;;;;5.90;5.60;;;;;;;18.86;40.52;101371.59;6139886;23;20082;-72
2022/05/02 11:22:16;;;;;;;7.13;6.72;;;;;;;18.64;39.46;101367.03;6139315;23;20433;-74
2022/05/02 11:25:08;;;;;;;5.40;5.20;;;;;;;18.87;42.45;101362.63;6136625;23;20035;-73
2022/05/02 11:27:43;;;;;;;6.03;5.63;;;;;;;19.12;40.20;101358.06;6140484;23;20339;-73
2022/05/02 11:30:12;;;;;;;6.40;6.00;;;;;;;18.97;39.86;101349.47;6141711;23;20307;-73
2022/05/02 11:32:57;;;;;;;5.50;5.30;;;;;;;19.24;39.96;101353.59;6138207;23;20205;-72
2022/05/02 11:35:29;;;;;;;6.18;5.88;;;;;;;19.06;40.74;101346.13;6146938;23;20035;-72
2022/05/02 11:38:07;;;;;;;7.22;6.85;;;;;;;18.64;42.26;101265.13;6133699;23;20031;-73
2022/05/02 11:40:49;;;;;;;6.00;5.70;;;;;;;18.89;42.26;101339.44;6139435;23;20072;-73
2022/05/02 11:43:21;;;;;;;5.97;5.60;;;;;;;18.94;39.67;101339.06;6134160;23;20077;-73
2022/05/02 11:45:57;;;;;;;6.23;5.93;;;;;;;18.83;41.40;101278.75;6144631;23;20304;-72
2022/05/02 11:48:41;;;;;;;6.10;5.40;;;;;;;19.18;38.51;101341.63;6138272;23;20092;-73
2022/05/02 11:51:27;;;;;;;5.82;5.53;;;;;;;19.21;38.87;101316.59;6117809;23;20411;-74
2022/05/02 11:53:54;;;;;;;6.88;6.53;;;;;;;19.79;39.31;101343.94;6144360;23;20021;-73
2022/05/02 11:56:29;;;;;;;6.38;5.93;;;;;;;18.90;39.90;101321.66;6136438;23;20009;-72
2022/05/02 11:59:07;;;;;;;8.05;7.47;;;;;;;19.45;39.48;101341.28;6137499;23;20024;-75
2022/05/02 12:01:38;;;;;;;6.30;5.90;;;;;;;19.42;39.00;101346.81;6134116;23;20192;-73
2022/05/02 12:04:06;;;;;;;7.13;6.53;;;;;;;19.05;38.24;101279.72;6142972;23;20173;-74
2022/05/02 12:06:46;;;;;;;5.80;5.50;;;;;;;19.52;38.71;101336.28;6137887;23;20014;-72
2022/05/02 12:09:24;;;;;;;6.40;6.00;;;;;;;19.57;37.73;101322.63;6135327;23;20020;-71
2022/05/02 12:11:54;;;;;;;7.50;7.00;;;;;;;20.09;36.28;101311.25;6135448;23;20015;-74
2022/05/02 12:14:21;;;;;;;5.88;5.57;;;;;;;20.38;36.70;101341.78;6157101;23;20456;-71
2022/05/02 12:17:06;;;;;;;6.78;6.43;;;;;;;20.44;37.48;101333.28;6131545;23;20017;-71
2022/05/02 12:19:33;;;;;;;6.35;5.55;;;;;;;20.48;39.33;101337.38;6141054;23;20037;-73
2022/05/02 12:22:02;;;;;;;7.50;6.95;;;;;;;19.99;38.72;101336.13;6112748;23;20473;-73
2022/05/02 12:24:36;;;;;;;5.97;5.57;;;;;;;20.07;36.66;101341.69;6137527;23;20013;-71
2022/05/02 12:27:08;;;;;;;7.20;6.80;;;;;;;20.08;37.62;101346.03;6140696;23;20080;-74
2022/05/02 12:29:36;;;;;;;6.22;5.82;;;;;;;20.12;37.57;101328.81;6129693;23;20024;-74
2022/05/02 12:32:05;;;;;;;6.75;6.45;;;;;;;19.84;38.72;101328.41;6131303;23;20202;-74
2022/05/02 12:34:42;;;;;;;7.25;6.72;;;;;;;19.40;37.89;101322.16;6149280;23;20028;-72
2022/05/02 12:37:32;;;;;;;6.32;5.93;;;;;;;19.72;37.79;101321.41;6131373;23;20320;-73